createdAt,value
2022-07-27T05:01:35.294Z,99.99
2022-07-27T05:02:26.750Z,99.99
2022-07-27T05:03:26.795Z,99.99
2022-07-27T05:04:26.968Z,99.99
2022-07-27T05:05:26.890Z,99.99
2022-07-27T05:06:26.945Z,99.99
2022-07-27T05:07:27.053Z,99.99
2022-07-27T05:08:27.062Z,99.99
2022-07-27T05:09:27.379Z,99.99
2022-07-27T05:10:27.808Z,99.99
2022-07-27T05:11:51.063Z,99.99
2022-07-27T05:12:27.262Z,99.99
2022-07-27T09:51:58.454Z,86.68
2022-07-27T09:52:08.421Z,89.77
2022-07-27T09:53:40.885Z,87.20
2022-07-27T09:54:22.431Z,88.60
2022-07-27T09:55:13.022Z,87.29
2022-07-27T09:56:08.036Z,85.19
2022-07-27T09:57:08.226Z,83.88
2022-07-27T09:58:08.194Z,83.15
2022-07-27T09:59:08.242Z,83.72
2022-07-27T10:00:12.995Z,84.25
2022-07-27T10:01:09.295Z,86.91
2022-07-27T10:02:11.113Z,85.99
2022-07-27T10:03:08.456Z,85.07
2022-07-27T10:04:08.517Z,86.68
2022-07-27T10:05:08.577Z,88.71
2022-07-27T10:06:08.616Z,86.82
2022-07-27T10:07:15.428Z,86.76
2022-07-27T10:08:08.681Z,83.85
2022-07-27T10:09:20.211Z,84.92
2022-07-27T10:10:08.793Z,85.60
2022-07-27T10:11:12.444Z,85.46
2022-07-27T10:12:08.897Z,86.09
2022-07-27T10:13:20.083Z,87.31
2022-07-27T10:14:09.085Z,87.41
2022-07-27T10:15:09.106Z,87.27
2022-07-27T10:16:33.692Z,88.62
2022-07-27T10:17:12.978Z,88.57
2022-07-27T10:18:09.240Z,88.95
2022-07-27T10:19:09.304Z,88.61
2022-07-27T10:20:30.546Z,87.84
2022-07-27T10:21:15.907Z,87.64
2022-07-27T10:22:09.471Z,87.84
2022-07-27T10:23:10.448Z,90.16
2022-07-27T10:24:09.909Z,93.30
2022-07-27T10:25:10.744Z,89.14
2022-07-27T10:26:17.497Z,87.63
2022-07-27T10:27:10.460Z,85.11
2022-07-27T10:28:14.147Z,83.95
2022-07-27T10:29:09.908Z,85.30
2022-07-27T10:30:14.610Z,85.60
2022-07-27T10:31:10.951Z,85.69
2022-07-27T10:32:10.291Z,85.79
2022-07-27T10:33:10.135Z,84.63
2022-07-27T10:34:10.618Z,85.02
2022-07-27T10:35:10.212Z,84.92
2022-07-27T10:36:16.450Z,85.94
2022-07-27T10:37:10.315Z,86.43
2022-07-27T10:38:17.012Z,86.33
2022-07-27T10:39:16.826Z,88.21
2022-07-27T10:40:10.531Z,85.11
2022-07-27T10:41:11.462Z,85.25
2022-07-27T10:42:15.429Z,86.26
2022-07-27T10:43:10.626Z,82.53
2022-07-27T10:44:13.703Z,84.47
2022-07-27T10:45:12.449Z,83.54
2022-07-27T10:46:10.818Z,83.06
2022-07-27T10:47:10.873Z,83.47
2022-07-27T10:48:11.929Z,84.42
2022-07-27T10:49:11.061Z,83.54
2022-07-27T10:50:17.959Z,82.57
2022-07-27T10:51:11.158Z,82.53
2022-07-27T10:52:11.387Z,83.56
2022-07-27T10:53:11.556Z,85.02
2022-07-27T10:54:12.305Z,86.12
2022-07-27T10:55:11.363Z,83.40
2022-07-27T10:56:11.436Z,83.95
2022-07-27T10:57:11.464Z,84.34
2022-07-27T10:58:17.151Z,85.78
2022-07-27T10:59:11.577Z,85.04
2022-07-27T11:00:16.309Z,89.01
2022-07-27T11:01:11.732Z,85.99
2022-07-27T11:02:12.456Z,80.97
2022-07-27T11:03:11.806Z,81.94
2022-07-27T11:04:12.059Z,78.66
2022-07-27T11:05:53.442Z,80.85
2022-07-27T11:06:32.104Z,80.52
2022-07-27T11:07:34.386Z,82.37
2022-07-27T11:10:12.197Z,81.86
2022-07-27T11:11:12.314Z,79.28
2022-07-27T11:12:12.312Z,80.09
2022-07-27T11:13:12.338Z,78.17
2022-07-27T11:14:12.615Z,78.56
2022-07-27T11:15:12.637Z,81.38
2022-07-27T11:16:27.740Z,81.43
2022-07-27T11:18:15.133Z,81.35
2022-07-27T11:19:13.036Z,82.40
2022-07-27T11:20:14.048Z,80.17
2022-07-27T11:21:12.882Z,78.99
2022-07-27T11:22:28.337Z,77.10
2022-07-27T11:23:50.047Z,78.81
2022-07-27T11:24:13.307Z,80.04
2022-07-27T11:25:13.202Z,80.25
2022-07-27T11:26:13.235Z,81.72
2022-07-27T11:27:16.403Z,83.91
2022-07-27T11:28:13.999Z,86.04
2022-07-27T11:29:13.872Z,86.66
2022-07-27T11:30:13.433Z,85.06
2022-07-27T11:31:17.201Z,84.52
2022-07-27T11:32:13.564Z,83.25
2022-07-27T11:33:13.620Z,84.03
2022-07-27T11:34:13.970Z,83.94
2022-07-27T11:35:19.243Z,82.77
2022-07-27T11:36:14.005Z,83.29
2022-07-27T11:37:13.758Z,82.18
2022-07-27T11:38:13.805Z,82.24
2022-07-27T11:39:14.910Z,83.31
2022-07-27T11:40:53.243Z,82.63
2022-07-27T11:41:33.748Z,83.95
2022-07-27T11:42:21.213Z,88.69
2022-07-27T11:43:15.641Z,83.24
2022-07-27T11:44:14.847Z,80.89
2022-07-27T11:45:14.210Z,78.71
2022-07-27T11:46:14.371Z,79.80
2022-07-27T11:47:14.325Z,81.88
2022-07-27T11:48:14.381Z,82.11
2022-07-27T11:49:14.500Z,82.20
2022-07-27T11:50:14.642Z,78.40
2022-07-27T11:51:14.555Z,78.69
2022-07-27T11:52:14.615Z,78.33
2022-07-27T11:53:14.689Z,78.91
2022-07-27T11:54:14.743Z,79.94
2022-07-27T11:55:14.821Z,81.84
2022-07-27T11:56:14.860Z,82.81
2022-07-27T11:57:15.040Z,82.75
2022-07-27T11:58:15.027Z,81.57
2022-07-27T11:59:15.547Z,79.49
2022-07-27T12:00:15.188Z,81.82
2022-07-27T12:01:15.196Z,81.63
2022-07-27T12:02:15.306Z,82.11
2022-07-27T12:03:16.458Z,81.71
2022-07-27T12:04:15.447Z,79.84
2022-07-27T12:05:15.463Z,78.91
2022-07-27T12:06:15.566Z,75.01
2022-07-27T12:07:15.808Z,76.41
2022-07-27T12:08:15.611Z,74.76
2022-07-27T12:09:16.187Z,75.20
2022-07-27T12:10:15.688Z,75.79
2022-07-27T12:11:15.816Z,75.87
2022-07-27T12:12:15.945Z,78.25
2022-07-27T12:13:15.990Z,76.97
2022-07-27T12:14:15.924Z,80.30
2022-07-27T12:15:44.174Z,78.79
2022-07-27T12:16:18.506Z,78.77
2022-07-27T12:17:16.161Z,76.59
2022-07-27T12:18:16.198Z,76.24
2022-07-27T12:19:16.495Z,76.35
2022-07-27T12:20:16.318Z,78.33
2022-07-27T12:21:16.343Z,78.67
2022-07-27T12:22:16.402Z,80.81
2022-07-27T12:23:16.463Z,80.94
2022-07-27T12:24:16.531Z,81.73
2022-07-27T12:25:17.303Z,78.81
2022-07-27T12:26:16.653Z,77.94
2022-07-27T12:27:16.722Z,78.33
2022-07-27T12:28:16.779Z,78.66
2022-07-27T12:29:17.029Z,76.55
2022-07-27T12:30:16.928Z,77.27
2022-07-27T12:31:17.100Z,76.20
2022-07-27T12:32:16.999Z,78.28
2022-07-27T12:33:17.064Z,79.97
2022-07-27T12:34:17.123Z,79.92
2022-07-27T12:35:17.363Z,77.97
2022-07-27T12:36:17.280Z,78.13
2022-07-27T12:37:17.349Z,75.89
2022-07-27T12:38:17.404Z,77.15
2022-07-27T12:39:17.464Z,74.91
2022-07-27T12:40:17.596Z,74.82
2022-07-27T12:41:17.606Z,76.51
2022-07-27T12:42:17.691Z,75.76
2022-07-27T12:43:17.746Z,74.37
2022-07-27T12:44:17.776Z,73.78
2022-07-27T12:45:18.034Z,77.39
2022-07-27T12:46:17.923Z,75.30
2022-07-27T12:47:17.934Z,73.68
2022-07-27T12:48:18.036Z,76.21
2022-07-27T12:49:18.312Z,73.23
2022-07-27T12:50:18.118Z,74.11
2022-07-27T12:51:18.202Z,75.21
2022-07-27T12:52:18.215Z,76.19
2022-07-27T12:53:18.310Z,78.01
2022-07-27T12:54:18.341Z,74.89
2022-07-27T12:55:18.436Z,76.54
2022-07-27T12:56:27.678Z,77.42
2022-07-27T12:57:39.602Z,77.26
2022-07-27T12:58:18.601Z,76.35
2022-07-27T12:59:18.693Z,76.12
2022-07-27T13:00:18.713Z,76.12
2022-07-27T13:01:18.847Z,77.25
2022-07-27T13:02:18.866Z,76.24
2022-07-27T13:03:18.911Z,77.60
2022-07-27T13:04:18.994Z,78.34
2022-07-27T13:05:19.051Z,80.09
2022-07-27T13:06:19.076Z,82.14
2022-07-27T13:07:19.161Z,79.90
2022-07-27T13:08:19.192Z,81.81
2022-07-27T13:09:19.271Z,81.56
2022-07-27T13:10:19.341Z,78.89
2022-07-27T13:11:19.405Z,81.36
2022-07-27T13:12:19.447Z,79.10
2022-07-27T13:13:19.525Z,76.30
2022-07-27T13:14:19.571Z,76.68
2022-07-27T13:15:19.645Z,78.20
2022-07-27T13:16:19.748Z,78.89
2022-07-27T13:17:19.741Z,79.57
2022-07-27T13:18:23.425Z,81.12
2022-07-27T13:19:19.861Z,80.97
2022-07-27T13:20:19.970Z,80.97
2022-07-27T13:21:19.982Z,79.16
2022-07-27T13:22:20.053Z,80.62
2022-07-27T13:23:20.118Z,76.59
2022-07-27T13:24:20.165Z,78.83
2022-07-27T13:25:20.244Z,77.72
2022-07-27T13:26:20.275Z,79.38
2022-07-27T13:27:21.087Z,79.96
2022-07-27T13:28:20.397Z,79.72
2022-07-27T13:29:20.459Z,81.57
2022-07-27T13:30:20.514Z,78.59
2022-07-27T13:31:20.665Z,79.33
2022-07-27T13:32:20.706Z,81.28
2022-07-27T13:33:21.529Z,81.86
2022-07-27T13:34:20.750Z,81.96
2022-07-27T13:35:20.833Z,80.79
2022-07-27T13:36:20.902Z,82.21
2022-07-27T13:37:20.944Z,82.84
2022-07-27T13:38:20.996Z,82.25
2022-07-27T13:39:21.071Z,80.21
2022-07-27T13:40:21.107Z,79.24
2022-07-27T13:41:21.169Z,81.18
2022-07-27T13:42:21.390Z,78.75
2022-07-27T13:43:21.342Z,79.76
2022-07-27T13:44:49.134Z,80.25
2022-07-27T13:45:21.626Z,78.99
2022-07-27T13:46:21.613Z,77.56
2022-07-27T13:47:21.598Z,77.66
2022-07-27T13:48:21.721Z,78.92
2022-07-27T13:49:21.771Z,77.50
2022-07-27T13:50:21.758Z,78.13
2022-07-27T13:51:21.827Z,77.25
2022-07-27T13:52:21.841Z,77.80
2022-07-27T13:53:22.190Z,79.94
2022-07-27T13:54:21.971Z,80.43
2022-07-27T13:55:27.679Z,80.46
2022-07-27T13:56:23.814Z,81.24
2022-07-27T13:57:22.123Z,77.34
2022-07-27T13:58:22.188Z,81.83
2022-07-27T13:59:22.241Z,79.30
2022-07-27T14:00:22.327Z,76.24
2022-07-27T14:01:22.390Z,80.91
2022-07-27T14:02:23.212Z,79.45
2022-07-27T14:03:22.477Z,78.63
2022-07-27T14:04:22.542Z,78.73
2022-07-27T14:05:22.620Z,79.90
2022-07-27T14:06:22.701Z,79.76
2022-07-27T14:07:27.773Z,82.97
2022-07-27T14:08:22.968Z,82.10
2022-07-27T14:09:23.196Z,81.41
2022-07-27T14:10:23.291Z,81.07
2022-07-27T14:11:23.326Z,78.03
2022-07-27T14:12:23.253Z,74.95
2022-07-27T14:13:23.374Z,74.69
2022-07-27T14:14:24.266Z,74.21
2022-07-27T14:15:23.397Z,74.76
2022-07-27T14:16:23.381Z,75.63
2022-07-27T14:17:23.369Z,75.36
2022-07-27T14:18:23.433Z,74.52
2022-07-27T14:19:23.526Z,75.73
2022-07-27T14:20:23.603Z,77.75
2022-07-27T14:21:23.605Z,75.93
2022-07-27T14:22:23.657Z,74.93
2022-07-27T14:23:23.768Z,75.12
2022-07-27T14:24:23.769Z,75.76
2022-07-27T14:25:23.960Z,76.02
2022-07-27T14:26:23.920Z,74.13
2022-07-27T14:27:24.014Z,75.59
2022-07-27T14:28:24.094Z,77.00
2022-07-27T14:29:24.072Z,75.98
2022-07-27T14:30:24.236Z,76.96
2022-07-27T14:31:24.242Z,76.34
2022-07-27T14:32:24.274Z,75.75
2022-07-27T14:33:24.390Z,76.43
2022-07-27T14:34:24.429Z,72.05
2022-07-27T14:35:24.510Z,73.71
2022-07-27T14:36:24.551Z,74.93
2022-07-27T14:37:24.608Z,76.55
2022-07-27T14:38:25.149Z,77.48
2022-07-27T14:39:24.702Z,78.13
2022-07-27T14:40:24.862Z,79.64
2022-07-27T14:41:24.823Z,79.41
2022-07-27T14:42:24.862Z,81.06
2022-07-27T14:43:24.915Z,81.65
2022-07-27T14:44:25.004Z,81.16
2022-07-27T14:45:25.054Z,80.96
2022-07-27T14:46:25.154Z,80.09
2022-07-27T14:47:25.145Z,80.83
2022-07-27T14:48:42.148Z,81.70
2022-07-27T14:49:25.985Z,81.60
2022-07-27T14:50:25.328Z,82.52
2022-07-27T14:51:25.420Z,81.51
2022-07-27T14:52:25.437Z,82.67
2022-07-27T14:53:25.553Z,82.97
2022-07-27T14:54:25.557Z,81.31
2022-07-27T14:55:25.659Z,84.56
2022-07-27T14:56:25.685Z,82.71
2022-07-27T14:57:25.735Z,82.85
2022-07-27T14:58:25.842Z,82.50
2022-07-27T14:59:25.845Z,81.71
2022-07-27T15:00:25.991Z,82.18
2022-07-27T15:01:26.031Z,81.28
2022-07-27T15:02:26.056Z,73.07
2022-07-27T15:03:26.185Z,70.34
2022-07-27T15:04:26.133Z,68.62
2022-07-27T15:05:26.203Z,68.13
2022-07-27T15:06:26.249Z,69.73
2022-07-27T15:07:26.354Z,63.28
2022-07-27T15:08:26.390Z,64.52
2022-07-27T15:09:26.448Z,66.79
2022-07-27T15:10:26.493Z,65.11
2022-07-27T15:11:26.578Z,69.00
2022-07-27T15:12:26.651Z,69.78
2022-07-27T15:13:26.685Z,69.46
2022-07-27T15:14:29.642Z,70.20
2022-07-27T15:15:26.866Z,67.54
2022-07-27T15:16:26.944Z,66.63
2022-07-27T15:17:26.906Z,67.70
2022-07-27T15:18:26.984Z,68.68
2022-07-27T15:19:27.027Z,68.84
2022-07-27T15:20:27.086Z,67.90
2022-07-27T15:21:27.176Z,67.09
2022-07-27T15:22:27.246Z,64.12
2022-07-27T15:23:27.278Z,59.98
2022-07-27T15:24:27.332Z,60.40
2022-07-27T15:25:27.389Z,59.36
2022-07-27T15:26:27.487Z,60.24
2022-07-27T15:27:27.558Z,59.04
2022-07-27T15:28:27.581Z,59.27
2022-07-27T15:29:27.643Z,60.86
2022-07-27T15:30:28.596Z,61.09
2022-07-27T15:31:27.831Z,60.02
2022-07-27T15:32:27.882Z,59.92
2022-07-27T15:33:27.898Z,59.20
2022-07-27T15:34:27.962Z,59.92
2022-07-27T15:35:28.025Z,61.84
2022-07-27T15:36:32.630Z,62.21
2022-07-27T15:37:28.190Z,62.92
2022-07-27T15:38:28.225Z,61.35
2022-07-27T15:39:28.336Z,59.12
2022-07-27T15:40:28.344Z,57.63
2022-07-27T15:41:28.409Z,57.34
2022-07-27T15:42:28.472Z,57.43
2022-07-27T15:43:28.533Z,58.31
2022-07-27T15:44:28.629Z,57.29
2022-07-27T15:45:28.667Z,58.22
2022-07-27T15:46:28.798Z,59.39
2022-07-27T15:47:28.803Z,59.23
2022-07-27T15:48:28.858Z,57.57
2022-07-27T15:49:29.045Z,59.50
2022-07-27T15:50:28.985Z,62.66
2022-07-27T15:51:29.068Z,60.16
2022-07-27T15:52:29.121Z,59.28
2022-07-27T15:53:29.186Z,58.17
2022-07-27T15:54:33.420Z,59.38
2022-07-27T15:55:29.305Z,62.02
2022-07-27T15:56:29.408Z,64.13
2022-07-27T15:57:29.438Z,66.34
2022-07-27T15:58:29.491Z,66.05
2022-07-27T15:59:29.554Z,68.74
2022-07-27T16:00:29.660Z,68.64
2022-07-27T16:01:35.882Z,69.58
2022-07-27T16:02:29.747Z,67.38
2022-07-27T16:03:29.908Z,66.50
2022-07-27T16:04:29.877Z,66.50
2022-07-27T16:05:29.928Z,66.44
2022-07-27T16:06:32.014Z,66.83
2022-07-27T16:07:40.798Z,66.14
2022-07-27T16:08:30.107Z,66.99
2022-07-27T16:09:30.165Z,69.51
2022-07-27T16:10:30.271Z,70.97
2022-07-27T16:11:30.289Z,68.35
2022-07-27T16:12:33.760Z,67.47
2022-07-27T16:13:30.434Z,69.61
2022-07-27T16:14:30.492Z,71.66
2022-07-27T16:15:30.539Z,69.81
2022-07-27T16:16:30.712Z,70.68
2022-07-27T16:17:30.654Z,71.50
2022-07-27T16:18:34.104Z,68.67
2022-07-27T16:19:30.757Z,70.36
2022-07-27T16:20:30.808Z,69.78
2022-07-27T16:21:30.897Z,70.52
2022-07-27T16:22:30.933Z,69.55
2022-07-27T16:23:31.034Z,68.29
2022-07-27T16:24:33.968Z,67.50
2022-07-27T16:26:00.948Z,68.48
2022-07-27T16:26:31.151Z,68.74
2022-07-27T16:27:31.217Z,68.25
2022-07-27T16:28:31.337Z,68.90
2022-07-27T16:29:31.345Z,68.51
2022-07-27T16:30:36.438Z,69.19
2022-07-27T16:31:31.479Z,70.16
2022-07-27T16:32:31.500Z,70.06
2022-07-27T18:57:28.823Z,89.40
2022-07-27T18:58:01.817Z,90.03
2022-07-27T18:59:01.908Z,90.91
2022-07-27T19:00:01.916Z,92.07
2022-07-27T19:01:02.010Z,91.00
2022-07-27T19:02:02.086Z,92.65
2022-07-27T19:03:02.143Z,93.23
2022-07-27T19:04:02.748Z,90.91
2022-07-27T19:05:02.207Z,90.42
2022-07-27T19:06:02.225Z,90.81
2022-07-27T19:07:02.285Z,92.83
2022-07-27T19:08:02.339Z,92.07
2022-07-27T19:09:02.392Z,90.57
2022-07-27T19:10:02.469Z,89.70
